createdAt,value
2023-07-05T00:00:07.261Z,54.16
2023-07-05T00:02:33.729Z,54.03
2023-07-05T00:05:00.261Z,54.04
2023-07-05T00:07:26.630Z,53.60
2023-07-05T00:09:53.061Z,53.97
2023-07-05T00:12:21.257Z,54.12
2023-07-05T00:14:47.924Z,54.38
2023-07-05T00:17:14.781Z,54.69
2023-07-05T00:19:42.370Z,54.45
2023-07-05T00:22:08.771Z,54.66
2023-07-05T00:24:35.635Z,54.52
2023-07-05T00:27:02.108Z,54.32
2023-07-05T00:29:28.494Z,55.04
2023-07-05T00:31:54.920Z,55.05
2023-07-05T00:34:21.429Z,55.53
2023-07-05T00:36:47.808Z,55.84
2023-07-05T00:39:14.181Z,55.59
2023-07-05T00:41:41.279Z,55.90
2023-07-05T00:44:07.761Z,56.23
2023-07-05T00:46:36.007Z,56.17
2023-07-05T00:49:15.413Z,55.87
2023-07-05T00:51:47.090Z,56.34
2023-07-05T00:54:17.551Z,56.48
2023-07-05T00:56:51.807Z,55.74
2023-07-05T00:59:19.874Z,56.40
2023-07-05T01:02:01.497Z,56.58
2023-07-05T01:04:33.578Z,56.80
2023-07-05T01:07:00.125Z,57.50
2023-07-05T01:09:29.398Z,58.74
2023-07-05T01:12:04.880Z,58.89
2023-07-05T01:14:52.820Z,59.24
2023-07-05T01:17:30.674Z,59.23
2023-07-05T01:20:14.894Z,59.90
2023-07-05T01:23:17.153Z,60.30
2023-07-05T01:25:58.851Z,60.59
2023-07-05T01:28:42.979Z,61.31
2023-07-05T01:31:09.361Z,64.35
2023-07-05T01:33:39.458Z,65.31
2023-07-05T01:36:06.597Z,65.24
2023-07-05T01:38:33.003Z,64.41
2023-07-05T01:41:04.185Z,64.49
2023-07-05T01:43:33.801Z,64.80
2023-07-05T01:46:32.657Z,64.52
2023-07-05T01:49:12.779Z,64.29
2023-07-05T01:52:07.076Z,64.21
2023-07-05T01:55:02.114Z,64.22
2023-07-05T01:57:34.680Z,63.35
2023-07-05T02:00:08.426Z,64.49
2023-07-05T02:02:39.630Z,65.35
2023-07-05T02:05:09.154Z,69.41
2023-07-05T02:07:35.929Z,68.53
2023-07-05T02:10:02.538Z,67.83
2023-07-05T02:12:30.297Z,67.79
2023-07-05T02:14:57.142Z,68.04
2023-07-05T02:17:24.104Z,68.34
2023-07-05T02:19:50.923Z,67.82
2023-07-05T02:22:17.463Z,68.10
2023-07-05T02:24:43.888Z,67.83
2023-07-05T02:27:10.375Z,67.81
2023-07-05T02:29:36.801Z,67.29
2023-07-05T02:32:03.608Z,67.98
2023-07-05T02:34:30.524Z,67.62
2023-07-05T02:36:56.888Z,68.00
2023-07-05T02:39:23.262Z,66.87
2023-07-05T02:41:49.696Z,67.33
2023-07-05T02:44:16.146Z,66.99
2023-07-05T02:46:42.581Z,66.76
2023-07-05T02:49:08.983Z,70.00
2023-07-05T02:51:35.647Z,70.67
2023-07-05T02:54:02.063Z,70.32
2023-07-05T02:56:28.477Z,70.01
2023-07-05T02:58:54.901Z,69.42
2023-07-05T03:01:21.390Z,69.88
2023-07-05T03:03:47.846Z,69.52
2023-07-05T03:06:14.241Z,69.55
2023-07-05T03:08:40.634Z,69.25
2023-07-05T03:11:06.998Z,68.88
2023-07-05T03:13:34.911Z,69.67
2023-07-05T03:16:02.175Z,71.15
2023-07-05T03:18:29.585Z,70.68
2023-07-05T03:20:56.261Z,70.78
2023-07-05T03:23:22.677Z,71.99
2023-07-05T03:26:00.326Z,72.25
2023-07-05T03:28:32.552Z,72.23
2023-07-05T03:31:02.253Z,72.21
2023-07-05T03:33:29.878Z,71.67
2023-07-05T03:36:01.214Z,71.88
2023-07-05T03:38:29.909Z,72.90
2023-07-05T03:40:57.930Z,72.74
2023-07-05T03:43:26.190Z,72.89
2023-07-05T03:45:54.044Z,73.15
2023-07-05T03:48:22.302Z,72.92
2023-07-05T03:50:48.902Z,72.82
2023-07-05T03:53:15.371Z,72.72
2023-07-05T03:55:41.908Z,72.94
2023-07-05T03:58:08.384Z,73.34
2023-07-05T04:00:34.759Z,73.07
2023-07-05T04:03:01.222Z,73.14
2023-07-05T04:05:27.650Z,73.92
2023-07-05T04:07:54.039Z,75.59
2023-07-05T04:10:20.454Z,76.26
2023-07-05T04:12:46.826Z,75.97
2023-07-05T04:15:13.283Z,76.58
2023-07-05T04:17:39.783Z,76.23
2023-07-05T04:20:07.050Z,76.84
2023-07-05T04:22:36.251Z,76.44
2023-07-05T04:25:03.190Z,77.28
2023-07-05T04:27:29.694Z,77.32
2023-07-05T04:29:56.125Z,77.66
2023-07-05T04:32:22.552Z,78.78
2023-07-05T04:34:49.003Z,78.49
2023-07-05T04:37:19.509Z,78.10
2023-07-05T04:39:52.077Z,78.31
2023-07-05T04:42:18.446Z,77.89
2023-07-05T04:44:44.813Z,75.98
2023-07-05T04:47:11.191Z,75.78
2023-07-05T04:49:37.566Z,76.00
2023-07-05T04:52:04.161Z,75.69
2023-07-05T04:54:30.504Z,75.71
2023-07-05T04:56:56.921Z,75.66
2023-07-05T04:59:23.300Z,74.21
2023-07-05T05:01:49.721Z,74.05
2023-07-05T05:04:16.315Z,74.96
2023-07-05T05:06:42.708Z,74.93
2023-07-05T05:09:09.079Z,74.37
2023-07-05T05:11:35.419Z,76.01
2023-07-05T05:14:01.888Z,74.85
2023-07-05T05:16:28.432Z,73.87
2023-07-05T05:18:54.875Z,73.08
2023-07-05T05:21:21.230Z,71.72
2023-07-05T05:23:47.605Z,71.91
2023-07-05T05:26:13.997Z,72.01
2023-07-05T05:28:40.337Z,71.33
2023-07-05T05:31:10.072Z,72.02
2023-07-05T05:33:37.667Z,72.34
2023-07-05T05:36:04.674Z,72.09
2023-07-05T05:38:31.252Z,71.32
2023-07-05T05:41:03.033Z,70.39
2023-07-05T05:43:29.440Z,70.72
2023-07-05T05:45:55.859Z,71.06
2023-07-05T05:48:22.422Z,73.19
2023-07-05T05:50:49.539Z,74.26
2023-07-05T05:53:15.949Z,75.18
2023-07-05T05:55:42.370Z,74.81
2023-07-05T05:58:09.627Z,77.36
2023-07-05T06:00:37.497Z,76.74
2023-07-05T06:03:04.434Z,77.36
2023-07-05T06:05:32.647Z,77.40
2023-07-05T06:07:59.364Z,75.67
2023-07-05T06:10:25.754Z,74.92
2023-07-05T06:12:52.166Z,74.49
2023-07-05T06:15:18.555Z,74.77
2023-07-05T06:17:45.068Z,75.62
2023-07-05T06:20:12.989Z,76.86
2023-07-05T06:22:39.687Z,76.82
2023-07-05T06:25:06.307Z,76.18
2023-07-05T06:27:33.845Z,75.61
2023-07-05T06:30:00.753Z,76.08
2023-07-05T06:32:27.384Z,75.95
2023-07-05T06:34:53.795Z,75.74
2023-07-05T06:37:20.234Z,75.59
2023-07-05T06:39:46.638Z,76.17
2023-07-05T06:42:13.005Z,75.37
2023-07-05T06:44:39.405Z,74.71
2023-07-05T06:47:05.940Z,74.47
2023-07-05T06:49:32.879Z,74.06
2023-07-05T06:51:59.279Z,74.08
2023-07-05T06:54:25.671Z,74.56
2023-07-05T06:56:52.264Z,74.30
2023-07-05T06:59:18.635Z,73.87
2023-07-05T07:01:45.081Z,73.49
2023-07-05T07:04:11.559Z,73.21
2023-07-05T07:06:37.942Z,72.53
2023-07-05T07:09:06.770Z,72.14
2023-07-05T07:11:33.497Z,71.09
2023-07-05T07:13:59.915Z,71.14
2023-07-05T07:16:26.893Z,71.37
2023-07-05T07:18:53.654Z,70.24
2023-07-05T07:21:20.442Z,69.89
2023-07-05T07:23:48.449Z,70.04
2023-07-05T07:26:19.061Z,71.75
2023-07-05T07:28:51.491Z,71.71
2023-07-05T07:31:30.233Z,72.75
2023-07-05T07:33:57.552Z,72.99
2023-07-05T07:36:27.205Z,73.60
2023-07-05T07:38:54.210Z,74.88
2023-07-05T07:41:23.298Z,76.33
2023-07-05T07:43:55.024Z,77.05
2023-07-05T07:46:24.974Z,76.86
2023-07-05T07:48:55.087Z,79.35
2023-07-05T07:51:37.682Z,80.05
2023-07-05T07:54:08.356Z,81.86
2023-07-05T07:56:35.787Z,84.72
2023-07-05T07:59:02.492Z,86.03
2023-07-05T08:01:34.800Z,86.74
2023-07-05T08:04:04.879Z,86.42
2023-07-05T08:06:38.484Z,85.06
2023-07-05T08:09:06.724Z,83.97
2023-07-05T08:11:34.391Z,83.40
2023-07-05T08:16:29.315Z,84.08
2023-07-05T08:18:55.948Z,84.20
2023-07-05T08:21:22.333Z,84.45
2023-07-05T08:23:48.871Z,84.74
2023-07-05T08:26:15.866Z,83.82
2023-07-05T08:28:42.729Z,84.60
2023-07-05T08:31:09.915Z,83.87
2023-07-05T08:33:38.107Z,84.07
2023-07-05T08:36:13.694Z,82.80
2023-07-05T08:38:43.973Z,81.44
2023-07-05T08:41:48.250Z,81.95
2023-07-05T08:44:33.192Z,80.29
2023-07-05T08:47:02.481Z,79.40
2023-07-05T08:49:40.587Z,79.48
2023-07-05T08:52:23.272Z,79.77
2023-07-05T08:54:53.014Z,79.66
2023-07-05T08:57:26.814Z,79.48
2023-07-05T09:00:00.432Z,79.42
2023-07-05T09:02:28.293Z,78.80
2023-07-05T09:04:59.017Z,78.48
2023-07-05T09:08:02.636Z,79.91
2023-07-05T09:10:38.987Z,78.70
2023-07-05T09:13:39.679Z,76.99
2023-07-05T09:16:27.541Z,76.31
2023-07-05T09:19:09.798Z,76.49
2023-07-05T09:21:42.617Z,74.53
2023-07-05T09:24:17.806Z,74.41
2023-07-05T09:26:55.057Z,73.74
2023-07-05T09:29:39.467Z,74.65
2023-07-05T09:32:20.208Z,73.98
2023-07-05T09:34:51.301Z,73.08
2023-07-05T09:37:23.450Z,71.74
2023-07-05T09:40:16.134Z,71.79
2023-07-05T09:42:59.801Z,71.33
2023-07-05T09:45:27.295Z,71.63
2023-07-05T09:47:59.803Z,72.17
2023-07-05T09:50:26.943Z,73.46
2023-07-05T09:53:15.830Z,74.14
2023-07-05T09:56:07.133Z,73.02
2023-07-05T09:58:34.874Z,71.23
2023-07-05T10:01:06.079Z,71.03
2023-07-05T10:03:37.929Z,73.18
2023-07-05T10:06:10.597Z,73.41
2023-07-05T10:08:49.801Z,74.54
2023-07-05T10:11:21.332Z,75.25
2023-07-05T10:13:50.050Z,75.15
2023-07-05T10:16:17.684Z,74.08
2023-07-05T10:18:44.850Z,74.62
2023-07-05T10:21:20.247Z,74.02
2023-07-05T10:23:48.182Z,75.41
2023-07-05T10:26:18.004Z,74.41
2023-07-05T10:28:44.504Z,73.59
2023-07-05T10:31:26.843Z,74.44
2023-07-05T10:34:05.685Z,72.93
2023-07-05T10:36:32.162Z,71.65
2023-07-05T10:38:58.572Z,71.93
2023-07-05T10:41:33.008Z,69.81
2023-07-05T10:44:08.013Z,69.88
2023-07-05T10:46:37.734Z,69.65
2023-07-05T10:49:10.449Z,70.58
2023-07-05T10:51:41.836Z,72.62
2023-07-05T10:54:37.096Z,73.10
2023-07-05T10:57:17.115Z,72.78
2023-07-05T10:59:46.443Z,71.95
2023-07-05T11:02:13.055Z,71.35
2023-07-05T11:04:44.129Z,72.26
2023-07-05T11:07:13.737Z,71.01
2023-07-05T11:09:41.884Z,69.45
2023-07-05T11:12:21.301Z,70.61
2023-07-05T11:14:48.578Z,69.79
2023-07-05T11:17:26.937Z,68.53
2023-07-05T11:19:53.395Z,68.61
2023-07-05T11:22:40.004Z,68.56
2023-07-05T11:25:10.844Z,67.43
2023-07-05T11:27:50.364Z,68.01
2023-07-05T11:30:44.213Z,67.88
2023-07-05T11:33:10.653Z,67.42
2023-07-05T11:35:56.457Z,67.10
2023-07-05T11:38:45.635Z,67.26
2023-07-05T11:41:24.410Z,66.49
2023-07-05T11:44:03.139Z,67.51
2023-07-05T11:46:38.875Z,67.86
2023-07-05T11:49:26.364Z,67.69
2023-07-05T11:51:58.101Z,68.48
2023-07-05T11:54:39.030Z,68.14
2023-07-05T11:57:10.360Z,66.14
2023-07-05T11:59:43.562Z,67.18
2023-07-05T12:02:23.406Z,67.52
2023-07-05T12:04:54.665Z,68.01
2023-07-05T12:07:23.241Z,67.24
2023-07-05T12:09:50.222Z,67.60
2023-07-05T12:12:21.890Z,66.37
2023-07-05T12:14:48.322Z,66.09
2023-07-05T12:17:17.510Z,65.52
2023-07-05T12:19:44.463Z,66.40
2023-07-05T12:22:20.240Z,64.81
2023-07-05T12:24:51.812Z,65.75
2023-07-05T12:27:31.614Z,64.43
2023-07-05T12:30:00.587Z,65.23
2023-07-05T12:32:29.587Z,64.31
2023-07-05T12:35:11.297Z,62.67
2023-07-05T12:37:37.784Z,63.80
2023-07-05T12:40:18.039Z,62.34
2023-07-05T12:42:55.181Z,62.10
2023-07-05T12:45:26.498Z,63.53
2023-07-05T12:47:54.105Z,62.66
2023-07-05T12:50:22.730Z,62.25
2023-07-05T12:53:07.683Z,60.36
2023-07-05T12:55:38.014Z,61.55
2023-07-05T12:58:07.267Z,61.67
2023-07-05T13:00:35.441Z,60.74
2023-07-05T13:03:05.233Z,60.41
2023-07-05T13:05:31.889Z,60.36
2023-07-05T13:08:01.938Z,58.91
2023-07-05T13:10:29.166Z,58.79
2023-07-05T13:12:59.496Z,59.73
2023-07-05T13:15:37.062Z,60.68
2023-07-05T13:18:21.699Z,60.86
2023-07-05T13:20:48.867Z,60.30
2023-07-05T13:23:15.305Z,58.22
2023-07-05T13:25:47.448Z,58.89
2023-07-05T13:28:25.543Z,57.82
2023-07-05T13:30:55.595Z,58.17
2023-07-05T13:33:22.417Z,57.67
2023-07-05T13:35:48.913Z,56.67
2023-07-05T13:38:15.604Z,56.73
2023-07-05T13:40:55.406Z,55.93
2023-07-05T13:43:22.148Z,56.44
2023-07-05T13:45:50.386Z,56.31
2023-07-05T13:48:16.877Z,56.90
2023-07-05T13:50:43.362Z,56.64
2023-07-05T13:53:21.759Z,56.97
2023-07-05T13:55:48.382Z,55.65
2023-07-05T13:58:17.005Z,55.22
2023-07-05T14:00:47.104Z,53.66
2023-07-05T14:03:15.032Z,54.32
2023-07-05T14:05:41.612Z,54.03
2023-07-05T14:08:16.016Z,52.83
2023-07-05T14:10:48.596Z,54.06
2023-07-05T14:13:17.044Z,54.48
2023-07-05T14:15:45.471Z,52.81
2023-07-05T14:18:17.861Z,53.96
2023-07-05T14:20:45.109Z,53.43
2023-07-05T14:23:16.526Z,51.78
2023-07-05T14:25:48.768Z,52.10
2023-07-05T14:28:15.413Z,50.32
2023-07-05T14:30:43.121Z,50.48
2023-07-05T14:33:22.277Z,50.47
2023-07-05T14:35:48.943Z,51.75
2023-07-05T14:38:15.338Z,48.66
2023-07-05T14:40:45.527Z,47.31
2023-07-05T14:43:12.612Z,47.48
2023-07-05T14:45:39.289Z,47.31
2023-07-05T14:48:06.401Z,46.55
2023-07-05T14:50:35.075Z,46.50
2023-07-05T14:53:05.413Z,46.21
2023-07-05T14:55:32.103Z,45.09
2023-07-05T14:57:59.498Z,45.47
2023-07-05T15:00:32.969Z,44.43
2023-07-05T15:03:07.820Z,43.47
2023-07-05T15:05:34.682Z,44.07
2023-07-05T15:08:03.732Z,43.61
2023-07-05T15:10:31.121Z,43.18
2023-07-05T15:13:00.055Z,42.84
2023-07-05T15:15:32.718Z,42.88
2023-07-05T15:17:59.100Z,41.80
2023-07-05T15:20:27.128Z,42.42
2023-07-05T15:22:54.049Z,41.70
2023-07-05T15:25:21.776Z,41.88
2023-07-05T15:27:50.885Z,41.18
2023-07-05T15:30:17.909Z,42.69
2023-07-05T15:32:45.178Z,41.54
2023-07-05T15:35:14.814Z,41.74
2023-07-05T15:37:41.265Z,40.14
2023-07-05T15:40:11.508Z,39.85
2023-07-05T15:42:38.538Z,41.38
2023-07-05T15:45:06.831Z,41.23
2023-07-05T15:47:35.643Z,41.10
2023-07-05T15:50:04.495Z,40.85
2023-07-05T15:52:33.652Z,39.92
2023-07-05T15:55:00.036Z,38.43
2023-07-05T15:57:27.341Z,38.44
2023-07-05T16:00:04.518Z,40.06
2023-07-05T16:02:41.473Z,40.18
2023-07-05T16:05:10.341Z,39.39
2023-07-05T16:07:36.787Z,40.28
2023-07-05T16:10:03.293Z,41.21
2023-07-05T16:12:29.667Z,42.23
2023-07-05T16:14:56.474Z,42.06
2023-07-05T16:17:22.868Z,42.90
2023-07-05T16:19:49.387Z,43.82
2023-07-05T16:22:15.760Z,41.89
2023-07-05T16:24:42.215Z,41.72
2023-07-05T16:27:08.695Z,40.45
2023-07-05T16:29:36.159Z,40.87
2023-07-05T16:32:06.621Z,39.77
2023-07-05T16:34:33.003Z,38.89
2023-07-05T16:36:59.356Z,38.37
2023-07-05T16:39:25.832Z,38.07
2023-07-05T16:41:52.200Z,37.74
2023-07-05T16:44:19.452Z,37.38
2023-07-05T16:46:47.136Z,38.31
2023-07-05T16:49:13.595Z,43.69
2023-07-05T16:51:39.985Z,43.82
2023-07-05T16:54:07.646Z,44.01
2023-07-05T16:56:34.019Z,44.86
2023-07-05T16:59:00.400Z,45.24
2023-07-05T17:01:26.825Z,45.76
2023-07-05T17:03:53.272Z,46.41
2023-07-05T17:06:19.880Z,49.39
2023-07-05T17:08:46.300Z,49.34
2023-07-05T17:11:13.277Z,49.40
2023-07-05T17:13:39.818Z,49.93
2023-07-05T17:16:06.311Z,49.34
2023-07-05T17:18:34.397Z,48.72
2023-07-05T17:21:03.690Z,49.34
2023-07-05T17:23:30.669Z,52.18
2023-07-05T17:25:59.857Z,51.45
2023-07-05T17:28:33.031Z,51.15
2023-07-05T17:31:03.955Z,52.49
2023-07-05T17:33:32.397Z,52.68
2023-07-05T17:35:59.648Z,53.10
2023-07-05T17:38:26.894Z,53.03
2023-07-05T17:40:53.422Z,52.55
2023-07-05T17:43:19.913Z,52.22
2023-07-05T17:45:46.576Z,53.75
2023-07-05T17:48:13.033Z,52.12
2023-07-05T17:50:40.654Z,53.15
2023-07-05T17:53:07.743Z,53.57
2023-07-05T17:55:34.573Z,53.27
2023-07-05T17:58:02.162Z,54.36
2023-07-05T18:00:28.639Z,55.37
2023-07-05T18:02:55.319Z,55.11
2023-07-05T18:05:22.228Z,55.33
2023-07-05T18:07:48.609Z,55.33
2023-07-05T18:10:16.115Z,54.79
2023-07-05T18:12:42.540Z,55.74
2023-07-05T18:15:09.344Z,55.89
2023-07-05T18:17:36.382Z,55.64
2023-07-05T18:20:03.797Z,53.16
2023-07-05T18:22:30.170Z,54.58
2023-07-05T18:24:56.584Z,53.57
2023-07-05T18:27:22.981Z,54.00
2023-07-05T18:29:49.342Z,53.71
2023-07-05T18:32:15.709Z,48.34
2023-07-05T18:34:42.534Z,47.87
2023-07-05T18:37:09.337Z,46.56
2023-07-05T18:39:36.973Z,45.03
2023-07-05T18:42:03.467Z,44.66
2023-07-05T18:44:30.039Z,45.33
2023-07-05T18:46:56.449Z,44.24
2023-07-05T18:49:23.188Z,44.10
2023-07-05T18:51:49.676Z,43.08
2023-07-05T18:54:16.064Z,43.15
2023-07-05T18:56:42.815Z,43.16
2023-07-05T18:59:13.731Z,43.17
2023-07-05T19:01:40.731Z,42.12
2023-07-05T19:04:07.365Z,42.60
2023-07-05T19:06:33.801Z,42.24
2023-07-05T19:09:00.628Z,43.26
2023-07-05T19:11:29.012Z,43.42
2023-07-05T19:13:55.606Z,44.19
2023-07-05T19:16:25.382Z,43.45
2023-07-05T19:18:51.962Z,43.83
2023-07-05T19:21:19.814Z,43.92
2023-07-05T19:23:49.959Z,44.27
2023-07-05T19:26:18.654Z,45.59
2023-07-05T19:28:50.240Z,45.45
2023-07-05T19:31:31.294Z,44.17
2023-07-05T19:33:57.730Z,43.74
2023-07-05T19:36:26.246Z,43.41
2023-07-05T19:38:53.535Z,44.46
2023-07-05T19:41:21.068Z,43.51
2023-07-05T19:43:50.444Z,44.19
2023-07-05T19:46:23.867Z,45.34
2023-07-05T19:48:53.525Z,45.31
2023-07-05T19:51:19.875Z,45.15
2023-07-05T19:53:46.301Z,45.68
2023-07-05T19:56:15.162Z,46.22
2023-07-05T19:58:42.745Z,46.21
2023-07-05T20:01:10.127Z,45.96
2023-07-05T20:03:36.576Z,46.45
2023-07-05T20:06:04.309Z,46.44
2023-07-05T20:08:30.866Z,46.89
2023-07-05T20:11:08.066Z,46.70
2023-07-05T20:13:34.615Z,47.42
2023-07-05T20:16:01.115Z,47.91
2023-07-05T20:18:27.652Z,48.03
2023-07-05T20:21:00.519Z,48.19
2023-07-05T20:23:35.456Z,48.79
2023-07-05T20:26:01.852Z,48.82
2023-07-05T20:28:28.339Z,48.86
2023-07-05T20:30:58.304Z,48.57
2023-07-05T20:33:29.494Z,48.73
2023-07-05T20:36:00.446Z,49.25
2023-07-05T20:38:28.209Z,48.72
2023-07-05T20:40:56.410Z,48.05
2023-07-05T20:43:22.850Z,48.02
2023-07-05T20:45:57.999Z,48.04
2023-07-05T20:48:24.735Z,48.76
2023-07-05T20:51:11.870Z,48.02
2023-07-05T20:53:39.970Z,48.70
2023-07-05T20:56:06.714Z,49.30
2023-07-05T20:58:34.479Z,50.45
2023-07-05T21:01:02.351Z,50.89
2023-07-05T21:03:29.762Z,51.14
2023-07-05T21:05:56.869Z,50.84
2023-07-05T21:08:24.196Z,50.24
2023-07-05T21:10:53.059Z,50.89
2023-07-05T21:13:22.065Z,50.68
2023-07-05T21:15:49.234Z,50.42
2023-07-05T21:18:16.226Z,50.31
2023-07-05T21:20:45.611Z,50.98
2023-07-05T21:23:13.633Z,50.90
2023-07-05T21:25:40.070Z,50.79
2023-07-05T21:28:06.670Z,51.56
2023-07-05T21:30:33.370Z,52.60
2023-07-05T21:33:00.449Z,51.88
2023-07-05T21:35:30.735Z,51.86
2023-07-05T21:38:00.658Z,51.60
2023-07-05T21:40:30.815Z,50.53
2023-07-05T21:42:57.390Z,50.76
2023-07-05T21:45:26.674Z,49.48
2023-07-05T21:47:53.466Z,50.00
2023-07-05T21:50:21.421Z,49.44
2023-07-05T21:52:49.144Z,49.36
2023-07-05T21:55:16.329Z,49.96
2023-07-05T21:57:43.225Z,50.26
2023-07-05T22:00:10.471Z,49.80
2023-07-05T22:02:37.146Z,49.55
2023-07-05T22:05:04.076Z,49.49
2023-07-05T22:07:30.776Z,49.66
2023-07-05T22:09:57.925Z,50.65
2023-07-05T22:12:27.208Z,50.74
2023-07-05T22:15:00.447Z,51.45
2023-07-05T22:17:27.414Z,52.07
2023-07-05T22:19:56.676Z,52.09
2023-07-05T22:22:23.440Z,52.10
2023-07-05T22:24:49.821Z,51.93
2023-07-05T22:27:16.503Z,52.03
2023-07-05T22:29:42.932Z,52.18
2023-07-05T22:32:09.953Z,52.16
2023-07-05T22:34:36.416Z,52.33
2023-07-05T22:37:02.889Z,53.13
2023-07-05T22:39:29.279Z,52.92
2023-07-05T22:41:55.648Z,52.73
2023-07-05T22:44:23.113Z,52.76
2023-07-05T22:46:49.578Z,53.69
2023-07-05T22:49:16.018Z,54.91
2023-07-05T22:51:42.387Z,55.31
2023-07-05T22:54:08.765Z,54.97
2023-07-05T22:56:35.115Z,55.23
2023-07-05T22:59:01.639Z,54.77
2023-07-05T23:01:28.091Z,54.65
2023-07-05T23:03:54.705Z,55.56
2023-07-05T23:06:22.471Z,55.59
2023-07-05T23:08:48.855Z,55.49
2023-07-05T23:11:15.278Z,55.16
2023-07-05T23:13:44.496Z,56.04
2023-07-05T23:16:16.711Z,55.89
2023-07-05T23:18:45.897Z,56.00
2023-07-05T23:21:14.337Z,56.10
2023-07-05T23:23:40.824Z,55.87
2023-07-05T23:26:14.527Z,56.51
2023-07-05T23:28:40.974Z,57.34
2023-07-05T23:31:14.831Z,56.37
2023-07-05T23:33:41.253Z,56.71
2023-07-05T23:36:08.204Z,56.90
2023-07-05T23:38:34.596Z,56.98
2023-07-05T23:41:01.716Z,56.33
2023-07-05T23:43:30.185Z,56.04
2023-07-05T23:45:58.413Z,55.87
2023-07-05T23:48:27.798Z,55.92
2023-07-05T23:50:54.157Z,55.90
2023-07-05T23:53:21.824Z,56.51
2023-07-05T23:55:54.101Z,56.11
2023-07-05T23:58:27.710Z,56.28
